createdAt,value
2023-06-11T00:02:34.315Z,4.03
2023-06-11T00:05:37.131Z,5.25
2023-06-11T00:08:39.587Z,3.83
2023-06-11T00:11:43.228Z,5.15
2023-06-11T00:14:45.728Z,4.83
2023-06-11T00:17:49.248Z,6.53
2023-06-11T00:20:52.818Z,5.65
2023-06-11T00:23:55.755Z,7.30
2023-06-11T00:27:01.101Z,9.23
2023-06-11T00:30:05.644Z,7.10
2023-06-11T00:33:11.351Z,6.73
2023-06-11T00:36:13.842Z,8.77
2023-06-11T00:39:16.431Z,8.93
2023-06-11T00:42:20.579Z,9.05
2023-06-11T00:45:25.253Z,8.43
2023-06-11T00:48:27.710Z,5.93
2023-06-11T00:51:30.209Z,7.60
2023-06-11T00:54:34.267Z,6.80
2023-06-11T00:57:41.427Z,6.55
2023-06-11T01:00:50.671Z,6.50
2023-06-11T01:03:56.072Z,5.27
2023-06-11T01:07:01.682Z,7.07
2023-06-11T01:10:06.000Z,7.65
2023-06-11T01:13:11.529Z,7.63
2023-06-11T01:16:17.587Z,7.43
2023-06-11T01:19:19.979Z,6.47
2023-06-11T01:22:37.935Z,5.70
2023-06-11T01:26:14.769Z,6.18
2023-06-11T01:29:19.371Z,5.93
2023-06-11T01:32:25.163Z,6.30
2023-06-11T01:35:30.210Z,5.80
2023-06-11T01:38:36.174Z,8.68
2023-06-11T01:41:39.556Z,6.75
2023-06-11T01:44:42.222Z,5.78
2023-06-11T01:47:49.642Z,6.23
2023-06-11T01:50:52.650Z,6.77
2023-06-11T01:53:56.248Z,6.90
2023-06-11T01:56:58.682Z,6.47
2023-06-11T02:00:01.443Z,6.30
2023-06-11T02:03:06.624Z,5.20
2023-06-11T02:06:09.923Z,6.10
2023-06-11T02:09:12.537Z,5.60
2023-06-11T02:12:15.119Z,6.63
2023-06-11T02:15:17.629Z,7.15
2023-06-11T02:18:20.214Z,6.97
2023-06-11T02:21:22.746Z,6.53
2023-06-11T02:24:25.364Z,5.85
2023-06-11T02:27:27.982Z,7.63
2023-06-11T02:30:31.025Z,6.53
2023-06-11T02:33:33.649Z,8.03
2023-06-11T02:36:36.351Z,6.97
2023-06-11T02:39:38.873Z,6.18
2023-06-11T02:42:41.814Z,7.47
2023-06-11T02:45:44.293Z,8.07
2023-06-11T02:48:47.465Z,5.57
2023-06-11T02:51:50.002Z,7.47
2023-06-11T02:54:52.478Z,6.97
2023-06-11T02:57:54.993Z,8.32
2023-06-11T03:00:57.477Z,6.10
2023-06-11T03:04:00.256Z,7.30
2023-06-11T03:07:06.891Z,6.20
2023-06-11T03:10:10.353Z,8.00
2023-06-11T03:13:12.819Z,7.45
2023-06-11T03:16:17.391Z,7.40
2023-06-11T03:19:19.888Z,7.50
2023-06-11T03:22:23.739Z,6.67
2023-06-11T03:25:26.270Z,6.93
2023-06-11T03:28:29.059Z,7.93
2023-06-11T03:31:31.840Z,6.20
2023-06-11T03:34:34.382Z,8.03
2023-06-11T03:37:36.967Z,7.97
2023-06-11T03:40:39.643Z,5.88
2023-06-11T03:43:43.261Z,9.48
2023-06-11T03:46:46.226Z,7.35
2023-06-11T03:49:50.447Z,7.87
2023-06-11T03:52:53.321Z,7.47
2023-06-11T03:55:56.318Z,6.63
2023-06-11T03:58:58.953Z,8.48
2023-06-11T04:02:02.082Z,7.75
2023-06-11T04:05:05.430Z,6.70
2023-06-11T04:08:08.620Z,6.43
2023-06-11T04:11:11.166Z,7.60
2023-06-11T04:14:13.628Z,7.55
2023-06-11T04:17:16.547Z,8.48
2023-06-11T04:20:19.227Z,8.47
2023-06-11T04:23:22.202Z,7.53
2023-06-11T04:26:26.705Z,7.35
2023-06-11T04:29:30.810Z,9.23
2023-06-11T04:32:36.151Z,8.25
2023-06-11T04:35:39.963Z,8.43
2023-06-11T04:38:46.336Z,6.90
2023-06-11T04:41:52.774Z,7.70
2023-06-11T04:44:57.373Z,6.22
2023-06-11T04:48:04.894Z,7.57
2023-06-11T04:51:13.161Z,7.57
2023-06-11T04:54:22.485Z,7.80
2023-06-11T04:57:26.148Z,6.85
2023-06-11T05:00:29.787Z,7.72
2023-06-11T05:03:37.674Z,7.85
2023-06-11T05:06:49.506Z,8.67
2023-06-11T05:09:55.325Z,7.97
2023-06-11T05:12:58.515Z,7.70
2023-06-11T05:16:01.169Z,7.43
2023-06-11T05:19:04.423Z,8.57
2023-06-11T05:22:07.895Z,6.67
2023-06-11T05:25:10.615Z,7.77
2023-06-11T05:28:14.690Z,7.72
2023-06-11T05:31:17.684Z,6.57
2023-06-11T05:34:27.122Z,9.68
2023-06-11T05:37:31.770Z,7.83
2023-06-11T05:40:36.187Z,8.70
2023-06-11T05:43:39.004Z,6.63
2023-06-11T05:46:42.083Z,8.75
2023-06-11T05:49:44.914Z,7.50
2023-06-11T05:52:47.771Z,6.80
2023-06-11T05:55:52.249Z,8.63
2023-06-11T05:58:56.668Z,7.65
2023-06-11T06:02:01.312Z,6.88
2023-06-11T06:05:04.170Z,7.30
2023-06-11T06:08:06.844Z,6.93
2023-06-11T06:11:09.560Z,6.27
2023-06-11T06:14:12.171Z,7.43
2023-06-11T06:17:15.879Z,7.53
2023-06-11T06:20:18.529Z,6.97
2023-06-11T06:23:21.146Z,7.80
2023-06-11T06:26:32.022Z,7.43
2023-06-11T06:29:35.243Z,7.63
2023-06-11T06:32:40.155Z,7.50
2023-06-11T06:35:43.512Z,8.82
2023-06-11T06:38:48.266Z,7.80
2023-06-11T06:41:51.173Z,5.53
2023-06-11T06:44:57.807Z,5.38
2023-06-11T06:48:01.204Z,6.85
2023-06-11T06:51:04.817Z,6.85
2023-06-11T06:54:07.470Z,6.67
2023-06-11T06:57:11.751Z,7.13
2023-06-11T07:00:15.985Z,6.70
2023-06-11T07:03:19.725Z,7.43
2023-06-11T07:06:22.429Z,5.43
2023-06-11T07:09:25.696Z,6.37
2023-06-11T07:12:28.489Z,6.23
2023-06-11T07:15:31.155Z,6.57
2023-06-11T07:18:34.191Z,7.88
2023-06-11T07:21:37.724Z,7.00
2023-06-11T07:24:44.045Z,5.83
2023-06-11T07:27:47.317Z,6.17
2023-06-11T07:30:50.243Z,5.78
2023-06-11T07:33:52.997Z,5.80
2023-06-11T07:36:55.633Z,6.18
2023-06-11T07:39:58.251Z,7.43
2023-06-11T07:43:01.071Z,4.50
2023-06-11T07:46:06.441Z,6.07
2023-06-11T07:49:09.730Z,6.25
2023-06-11T07:52:12.571Z,5.13
2023-06-11T07:55:17.770Z,5.33
2023-06-11T07:58:20.306Z,4.17
2023-06-11T08:01:23.155Z,4.30
2023-06-11T08:04:26.998Z,4.43
2023-06-11T08:07:29.485Z,4.43
2023-06-11T08:10:33.285Z,4.43
2023-06-11T08:13:36.080Z,3.90
2023-06-11T08:16:38.701Z,4.47
2023-06-11T08:19:41.179Z,5.07
2023-06-11T08:22:43.982Z,3.92
2023-06-11T08:25:46.642Z,4.33
2023-06-11T08:28:49.113Z,3.13
2023-06-11T08:31:51.684Z,3.90
2023-06-11T08:34:54.233Z,4.55
2023-06-11T08:37:57.338Z,3.22
2023-06-11T08:40:59.867Z,3.27
2023-06-11T08:44:02.287Z,3.30
2023-06-11T08:47:05.344Z,2.95
2023-06-11T08:50:08.584Z,3.97
2023-06-11T08:53:13.996Z,3.70
2023-06-11T08:56:16.974Z,2.87
2023-06-11T08:59:20.338Z,2.87
2023-06-11T09:02:22.972Z,3.05
2023-06-11T09:05:25.628Z,3.35
2023-06-11T09:08:28.706Z,2.97
2023-06-11T09:11:35.212Z,2.63
2023-06-11T09:14:37.676Z,3.13
2023-06-11T09:17:42.199Z,3.85
2023-06-11T09:20:49.326Z,4.68
2023-06-11T09:23:52.629Z,2.95
2023-06-11T09:26:56.818Z,4.00
2023-06-11T09:30:09.363Z,4.17
2023-06-11T09:33:20.883Z,3.42
2023-06-11T09:36:23.465Z,4.78
2023-06-11T09:39:26.006Z,3.95
2023-06-11T09:42:28.840Z,3.20
2023-06-11T09:45:32.839Z,4.17
2023-06-11T09:48:35.291Z,3.03
2023-06-11T09:51:39.648Z,2.72
2023-06-11T09:54:42.660Z,3.58
2023-06-11T09:57:45.163Z,4.13
2023-06-11T10:00:48.588Z,3.93
2023-06-11T10:03:51.641Z,3.97
2023-06-11T10:06:54.146Z,3.08
2023-06-11T10:09:56.723Z,3.00
2023-06-11T10:12:59.261Z,4.37
2023-06-11T10:16:03.342Z,3.20
2023-06-11T10:19:11.926Z,3.33
2023-06-11T10:22:14.399Z,7.43
2023-06-11T10:25:16.963Z,3.15
2023-06-11T10:28:19.491Z,3.50
2023-06-11T10:31:29.649Z,2.83
2023-06-11T10:34:42.426Z,2.75
2023-06-11T10:37:45.230Z,2.10
2023-06-11T10:40:49.910Z,2.85
2023-06-11T10:43:52.372Z,2.77
2023-06-11T10:46:55.355Z,2.20
2023-06-11T10:50:12.115Z,2.50
2023-06-11T10:53:14.858Z,2.00
2023-06-11T10:56:20.980Z,2.30
2023-06-11T10:59:23.684Z,1.67
2023-06-11T11:02:27.338Z,2.27
2023-06-11T11:05:30.002Z,1.77
2023-06-11T11:08:32.517Z,2.60
2023-06-11T11:11:35.220Z,2.10
2023-06-11T11:14:37.783Z,1.70
2023-06-11T11:17:41.693Z,2.03
2023-06-11T11:20:48.019Z,2.03
2023-06-11T11:23:50.758Z,2.33
2023-06-11T11:26:53.265Z,2.33
2023-06-11T11:30:01.424Z,1.33
2023-06-11T11:33:06.439Z,1.97
2023-06-11T11:36:09.088Z,1.35
2023-06-11T11:39:12.675Z,1.30
2023-06-11T11:42:15.743Z,1.42
2023-06-11T11:45:19.352Z,7.63
2023-06-11T11:48:21.925Z,1.43
2023-06-11T11:51:26.693Z,1.40
2023-06-11T11:54:29.362Z,1.55
2023-06-11T11:57:32.076Z,1.13
2023-06-11T12:00:36.200Z,1.13
2023-06-11T12:03:39.112Z,1.70
2023-06-11T12:06:41.884Z,1.08
2023-06-11T12:09:44.479Z,1.10
2023-06-11T12:12:46.934Z,1.27
2023-06-11T12:15:49.396Z,2.13
2023-06-11T12:18:52.846Z,0.90
2023-06-11T12:21:56.965Z,0.98
2023-06-11T12:24:59.548Z,1.10
2023-06-11T12:28:02.090Z,1.92
2023-06-11T12:31:04.560Z,1.63
2023-06-11T12:34:07.701Z,1.00
2023-06-11T12:37:11.459Z,1.20
2023-06-11T12:40:14.301Z,1.10
2023-06-11T12:43:17.021Z,1.10
2023-06-11T12:46:19.528Z,2.97
2023-06-11T12:49:24.201Z,2.53
2023-06-11T12:52:26.796Z,1.77
2023-06-11T12:55:29.281Z,3.05
2023-06-11T12:58:31.776Z,1.50
2023-06-11T13:01:34.259Z,4.27
2023-06-11T13:04:37.076Z,1.40
2023-06-11T13:07:39.568Z,1.70
2023-06-11T13:10:42.097Z,1.77
2023-06-11T13:13:44.634Z,1.55
2023-06-11T13:16:47.718Z,2.23
2023-06-11T13:19:50.177Z,1.97
2023-06-11T13:22:52.616Z,1.67
2023-06-11T13:25:55.115Z,2.53
2023-06-11T13:28:57.772Z,1.95
2023-06-11T13:32:00.239Z,1.40
2023-06-11T13:35:02.780Z,1.10
2023-06-11T13:38:06.200Z,2.10
2023-06-11T13:41:08.783Z,1.85
2023-06-11T13:44:11.430Z,2.30
2023-06-11T13:47:14.064Z,1.87
2023-06-11T13:50:16.681Z,2.30
2023-06-11T13:53:22.650Z,2.47
2023-06-11T13:56:25.631Z,2.28
2023-06-11T13:59:28.167Z,2.45
2023-06-11T14:02:30.884Z,2.40
2023-06-11T14:05:33.571Z,1.70
2023-06-11T14:08:36.156Z,2.65
2023-06-11T14:11:38.697Z,2.92
2023-06-11T14:14:41.217Z,3.13
2023-06-11T14:17:44.005Z,1.93
2023-06-11T14:20:46.618Z,3.13
2023-06-11T14:23:49.323Z,2.78
2023-06-11T14:26:52.336Z,2.97
2023-06-11T14:29:54.858Z,2.20
2023-06-11T14:32:57.487Z,2.57
2023-06-11T14:36:04.483Z,2.80
2023-06-11T14:39:07.141Z,2.45
2023-06-11T14:42:09.608Z,2.33
2023-06-11T14:45:12.070Z,2.13
2023-06-11T14:48:14.505Z,2.50
2023-06-11T14:51:17.306Z,2.53
2023-06-11T14:54:19.839Z,2.53
2023-06-11T14:57:25.926Z,2.60
2023-06-11T15:00:28.889Z,3.00
2023-06-11T15:03:31.479Z,2.97
2023-06-11T15:06:34.671Z,2.33
2023-06-11T15:09:37.418Z,2.75
2023-06-11T15:12:39.959Z,2.10
2023-06-11T15:15:42.448Z,2.15
2023-06-11T15:18:44.952Z,2.70
2023-06-11T15:21:47.444Z,2.83
2023-06-11T15:24:49.931Z,3.92
2023-06-11T15:27:52.545Z,1.83
2023-06-11T15:30:55.064Z,2.10
2023-06-11T15:33:57.617Z,1.30
2023-06-11T15:37:00.130Z,2.00
2023-06-11T15:40:02.533Z,2.95
2023-06-11T15:43:04.993Z,2.88
2023-06-11T15:46:07.512Z,1.48
2023-06-11T15:49:10.094Z,1.50
2023-06-11T15:52:12.729Z,2.33
2023-06-11T15:55:15.631Z,1.98
2023-06-11T15:58:18.641Z,1.75
2023-06-11T16:01:21.310Z,2.22
2023-06-11T16:04:24.408Z,2.07
2023-06-11T16:07:26.924Z,2.03
2023-06-11T16:10:29.435Z,2.08
2023-06-11T16:13:32.263Z,2.63
2023-06-11T16:16:34.836Z,2.20
2023-06-11T16:19:37.469Z,3.87
2023-06-11T16:22:39.906Z,2.47
2023-06-11T16:25:42.521Z,3.60
2023-06-11T16:28:46.114Z,2.22
2023-06-11T16:31:48.551Z,1.85
2023-06-11T16:34:51.009Z,1.20
2023-06-11T16:37:53.468Z,2.53
2023-06-11T16:40:56.656Z,1.38
2023-06-11T16:43:59.125Z,1.55
2023-06-11T16:47:01.999Z,1.77
2023-06-11T16:50:04.748Z,15.30
2023-06-11T16:53:07.508Z,4.40
2023-06-11T16:56:10.051Z,2.50
2023-06-11T16:59:12.562Z,1.13
2023-06-11T17:02:15.011Z,1.38
2023-06-11T17:05:17.870Z,2.10
2023-06-11T17:08:20.778Z,1.50
2023-06-11T17:11:23.602Z,2.08
2023-06-11T17:14:26.372Z,1.50
2023-06-11T17:17:28.921Z,1.77
2023-06-11T17:20:32.255Z,1.50
2023-06-11T17:23:34.757Z,2.07
2023-06-11T17:26:38.355Z,2.38
2023-06-11T17:29:40.878Z,1.23
2023-06-11T17:32:43.371Z,1.52
2023-06-11T17:35:45.883Z,1.13
2023-06-11T17:38:48.417Z,1.90
2023-06-11T17:41:51.025Z,3.03
2023-06-11T17:44:53.568Z,1.83
2023-06-11T17:47:56.896Z,2.10
2023-06-11T17:50:59.436Z,2.57
2023-06-11T17:54:02.200Z,1.80
2023-06-11T17:57:05.169Z,1.55
2023-06-11T18:00:08.242Z,1.42
2023-06-11T18:03:10.956Z,1.50
2023-06-11T18:06:14.490Z,1.53
2023-06-11T18:09:19.213Z,2.63
2023-06-11T18:12:21.680Z,2.10
2023-06-11T18:15:33.151Z,2.92
2023-06-11T18:18:37.159Z,2.60
2023-06-11T18:21:39.790Z,2.03
2023-06-11T18:24:42.629Z,2.50
2023-06-11T18:27:45.240Z,2.35
2023-06-11T18:30:47.719Z,2.05
2023-06-11T18:33:50.662Z,3.95
2023-06-11T18:36:53.230Z,2.57
2023-06-11T18:39:55.809Z,2.73
2023-06-11T18:42:58.256Z,2.92
2023-06-11T18:46:00.963Z,2.25
2023-06-11T18:49:03.523Z,3.88
2023-06-11T18:52:07.656Z,2.70
2023-06-11T18:55:10.618Z,2.63
2023-06-11T18:58:14.319Z,3.05
2023-06-11T19:01:18.004Z,3.60
2023-06-11T19:04:23.066Z,3.75
2023-06-11T19:07:26.285Z,3.50
2023-06-11T19:10:28.834Z,3.23
2023-06-11T19:13:31.507Z,3.22
2023-06-11T19:16:34.036Z,3.50
2023-06-11T19:19:36.838Z,2.40
2023-06-11T19:22:39.458Z,2.73
2023-06-11T19:25:42.112Z,2.23
2023-06-11T19:28:44.690Z,3.08
2023-06-11T19:31:51.653Z,3.55
2023-06-11T19:34:54.287Z,2.72
2023-06-11T19:37:56.701Z,3.03
2023-06-11T19:40:59.135Z,3.80
2023-06-11T19:44:01.609Z,3.50
2023-06-11T19:47:04.332Z,4.22
2023-06-11T19:50:07.430Z,2.75
2023-06-11T19:53:09.965Z,2.80
2023-06-11T19:56:17.188Z,2.63
2023-06-11T19:59:20.617Z,3.55
2023-06-11T20:02:23.445Z,3.60
2023-06-11T20:05:26.089Z,3.83
2023-06-11T20:08:28.793Z,2.27
2023-06-11T20:11:31.901Z,3.80
2023-06-11T20:14:36.489Z,2.78
2023-06-11T20:17:39.386Z,3.38
2023-06-11T20:20:43.292Z,2.53
2023-06-11T20:23:47.848Z,2.50
2023-06-11T20:26:50.687Z,2.30
2023-06-11T20:29:53.242Z,2.97
2023-06-11T20:32:56.154Z,2.78
2023-06-11T20:35:58.675Z,3.50
2023-06-11T20:39:01.210Z,1.40
2023-06-11T20:42:04.101Z,2.07
2023-06-11T20:45:08.214Z,1.83
2023-06-11T20:48:10.760Z,1.73
2023-06-11T20:51:13.321Z,2.00
2023-06-11T20:54:15.877Z,2.03
2023-06-11T20:57:18.354Z,1.67
2023-06-11T21:00:21.125Z,1.95
2023-06-11T21:03:24.067Z,1.35
2023-06-11T21:06:26.730Z,1.88
2023-06-11T21:09:29.232Z,2.70
2023-06-11T21:12:31.743Z,1.60
2023-06-11T21:15:34.349Z,2.40
2023-06-11T21:18:36.882Z,1.40
2023-06-11T21:21:39.340Z,1.95
2023-06-11T21:24:41.910Z,1.40
2023-06-11T21:27:44.733Z,2.57
2023-06-11T21:30:47.293Z,1.30
2023-06-11T21:33:49.791Z,1.25
2023-06-11T21:36:52.476Z,1.95
2023-06-11T21:39:55.582Z,1.77
2023-06-11T21:42:58.054Z,2.70
2023-06-11T21:46:00.628Z,1.45
2023-06-11T21:49:03.189Z,1.67
2023-06-11T21:52:06.256Z,2.60
2023-06-11T21:55:08.934Z,2.17
2023-06-11T21:58:11.471Z,1.40
2023-06-11T22:01:14.026Z,1.58
2023-06-11T22:04:18.844Z,1.33
2023-06-11T22:07:23.174Z,1.42
2023-06-11T22:10:25.649Z,2.10
2023-06-11T22:13:30.945Z,2.10
2023-06-11T22:16:36.094Z,1.20
2023-06-11T22:19:39.722Z,1.05
2023-06-11T22:22:43.707Z,1.45
2023-06-11T22:25:46.266Z,1.67
2023-06-11T22:28:48.743Z,0.60
2023-06-11T22:31:51.283Z,1.50
2023-06-11T22:34:53.832Z,2.03
2023-06-11T22:37:56.291Z,1.98
2023-06-11T22:40:58.807Z,1.27
2023-06-11T22:44:01.259Z,1.37
2023-06-11T22:47:04.436Z,1.23
2023-06-11T22:50:07.814Z,2.38
2023-06-11T22:53:15.077Z,2.25
2023-06-11T22:56:17.651Z,1.17
2023-06-11T22:59:20.139Z,1.20
2023-06-11T23:02:22.742Z,1.67
2023-06-11T23:05:25.441Z,1.63
2023-06-11T23:08:28.141Z,2.08
2023-06-11T23:11:30.625Z,2.07
2023-06-11T23:14:33.117Z,2.23
2023-06-11T23:17:37.551Z,1.65
2023-06-11T23:20:41.527Z,1.67
2023-06-11T23:23:44.057Z,1.30
2023-06-11T23:26:46.481Z,1.37
2023-06-11T23:29:51.248Z,1.20
2023-06-11T23:32:54.406Z,1.65
2023-06-11T23:35:57.036Z,3.35
2023-06-11T23:38:59.696Z,2.47
2023-06-11T23:42:03.918Z,2.00
2023-06-11T23:45:06.683Z,2.10
2023-06-11T23:48:09.189Z,2.15
2023-06-11T23:51:12.557Z,1.52
2023-06-11T23:54:15.093Z,0.75
2023-06-11T23:57:17.558Z,2.90
